Parkside, New York
Current Conditions -  °F | °C
As of 7:16 PM on Monday 22 Dec 2014 (Local Time) from KLGA Reporting Station
Overcast Overcast  
Wind Chill: 39°   Ceiling: 1400
Heat Index: 45°   Visibility: 10mi
Dew Point: 39°   Wind: 10mph
Humidity: 81%   Direction: 50°NE
Pressure: 30.22"   Gusts: NA
Location:  40.7228°N, 73.845°W
Report Text: KLGA 230016Z 05009KT 10SM FEW008 OVC014 07/04 A3022 RMK AO2
Loading
Personal Weather Stations






























Interactive Weather Map New forecast layout! Learn more

10-Day Weather Forecast

Advertisements
Track Severe Weather on mobile